Weather at Pista de Vendas Novas

Public forecast

Using degrees Celsius for public forecast. Weather courtesy of forecast.io.

Closest aviation weather report (METAR) to Pista de Vendas Novas

Closest report is Montijo Air Base, 25.4 nm (47.0 km) W. Retrieved 2020/10/21 07:00 UTC (36 minutes ago):

LPMT 210700Z 17007KT 9999 4000SW -SHRA SCT020 FEW022TCU SCT030 16/15 Q1005

Closest aviation forecast (TAF) to Pista de Vendas Novas

Closest forecast is Montijo Air Base, 25.4 nm (47.0 km) W. Retrieved 2020/10/21 06:15 UTC (1 hour ago):

TAF LPMT 210506Z 2106/2206 20010KT 9999 SCT015 TEMPO 2106/2206 6000 -SHRA BKN014 FEW020TCU PROB40 TEMPO 2108/2116 2500 SHRA BKN009 SCT020CB